createdAt,value
2019-05-05T00:00:55.019Z,14.17
2019-05-05T00:03:38.274Z,14.17
2019-05-05T00:06:08.966Z,14.20
2019-05-05T00:08:38.318Z,14.21
2019-05-05T00:11:09.347Z,14.23
2019-05-05T00:13:52.045Z,14.24
2019-05-05T00:16:25.545Z,14.22
2019-05-05T00:18:55.193Z,14.27
2019-05-05T00:21:24.634Z,14.24
2019-05-05T00:23:55.342Z,14.24
2019-05-05T00:26:24.865Z,14.22
2019-05-05T00:28:55.352Z,14.16
2019-05-05T00:31:24.984Z,14.16
2019-05-05T00:33:54.579Z,14.17
2019-05-05T00:36:24.631Z,14.18
2019-05-05T00:38:55.147Z,14.18
2019-05-05T00:41:25.444Z,14.18
2019-05-05T00:43:55.449Z,14.16
2019-05-05T00:46:44.702Z,14.17
2019-05-05T00:49:14.613Z,14.17
2019-05-05T00:51:44.397Z,14.17
2019-05-05T00:54:14.887Z,14.14
2019-05-05T00:56:45.057Z,14.13
2019-05-05T00:59:16.145Z,14.11
2019-05-05T01:02:04.624Z,14.09
2019-05-05T01:04:42.080Z,14.06
2019-05-05T01:07:11.523Z,14.05
2019-05-05T01:09:42.541Z,14.02
2019-05-05T01:12:12.222Z,13.97
2019-05-05T01:14:41.594Z,13.94
2019-05-05T01:17:10.896Z,13.95
2019-05-05T01:19:40.291Z,13.90
2019-05-05T01:22:09.931Z,13.88
2019-05-05T01:24:39.305Z,13.83
2019-05-05T01:27:08.810Z,13.77
2019-05-05T01:29:38.178Z,13.76
2019-05-05T01:32:09.195Z,13.77
2019-05-05T01:34:44.371Z,13.73
2019-05-05T01:37:18.663Z,13.71
2019-05-05T01:40:05.073Z,13.70
2019-05-05T01:42:35.294Z,13.68
2019-05-05T01:45:05.444Z,13.65
2019-05-05T01:47:34.845Z,13.63
2019-05-05T01:50:17.152Z,13.58
2019-05-05T01:52:37.775Z,13.56
2019-05-05T01:55:07.378Z,13.57
2019-05-05T01:57:36.852Z,13.58
2019-05-05T02:00:07.794Z,13.55
2019-05-05T02:02:37.496Z,13.52
2019-05-05T02:05:07.266Z,13.52
2019-05-05T02:07:36.648Z,13.53
2019-05-05T02:10:08.232Z,13.52
2019-05-05T02:12:37.603Z,13.50
2019-05-05T02:15:08.068Z,13.48
2019-05-05T02:17:37.462Z,13.48
2019-05-05T02:20:07.322Z,13.47
2019-05-05T02:22:36.747Z,13.46
2019-05-05T02:25:07.672Z,13.41
2019-05-05T02:27:37.105Z,13.43
2019-05-05T02:30:18.209Z,13.42
2019-05-05T02:32:49.220Z,13.40
2019-05-05T02:35:18.597Z,13.42
2019-05-05T02:37:48.081Z,13.40
2019-05-05T02:40:18.250Z,13.42
2019-05-05T02:42:49.084Z,13.42
2019-05-05T02:45:27.512Z,13.40
2019-05-05T02:48:01.807Z,13.38
2019-05-05T02:50:50.993Z,13.36
2019-05-05T02:53:06.174Z,13.39
2019-05-05T02:55:35.764Z,13.38
2019-05-05T02:58:05.269Z,13.37
2019-05-05T03:00:36.377Z,13.39
2019-05-05T03:03:08.016Z,13.40
2019-05-05T03:05:37.722Z,13.42
2019-05-05T03:08:07.093Z,13.42
2019-05-05T03:10:36.863Z,13.42
2019-05-05T03:13:07.266Z,13.42
2019-05-05T03:15:45.404Z,13.42
2019-05-05T03:18:14.811Z,13.38
2019-05-05T03:20:44.806Z,13.39
2019-05-05T03:23:14.676Z,13.37
2019-05-05T03:25:45.175Z,13.38
2019-05-05T03:28:14.941Z,13.35
2019-05-05T03:30:45.776Z,13.36
2019-05-05T03:33:16.385Z,13.36
2019-05-05T03:35:46.528Z,13.34
2019-05-05T03:38:16.790Z,13.34
2019-05-05T03:40:48.258Z,13.34
2019-05-05T03:43:25.456Z,13.35
2019-05-05T03:45:56.797Z,13.33
2019-05-05T03:48:26.466Z,13.36
2019-05-05T03:50:56.031Z,13.40
2019-05-05T03:53:25.536Z,13.44
2019-05-05T03:55:55.605Z,13.49
2019-05-05T03:58:25.571Z,13.48
2019-05-05T04:01:14.535Z,13.49
2019-05-05T04:03:43.945Z,13.50
2019-05-05T04:06:14.670Z,13.50
2019-05-05T04:08:45.091Z,13.49
2019-05-05T04:11:14.467Z,13.47
2019-05-05T04:13:44.152Z,13.47
2019-05-05T04:16:15.476Z,13.48
2019-05-05T04:18:54.108Z,13.44
2019-05-05T04:21:31.273Z,13.42
2019-05-05T04:23:54.386Z,13.44
2019-05-05T04:26:23.749Z,13.45
2019-05-05T04:28:54.167Z,13.46
2019-05-05T04:31:24.210Z,13.49
2019-05-05T04:33:53.900Z,13.45
2019-05-05T04:36:23.627Z,13.46
2019-05-05T04:38:54.608Z,13.45
2019-05-05T04:41:24.614Z,13.46
2019-05-05T04:43:54.690Z,13.43
2019-05-05T04:46:24.623Z,13.42
2019-05-05T04:48:58.008Z,13.39
2019-05-05T04:51:46.237Z,13.41
2019-05-05T04:54:07.596Z,13.45
2019-05-05T04:56:37.221Z,13.45
2019-05-05T04:59:06.590Z,13.44
2019-05-05T05:01:36.542Z,13.46
2019-05-05T05:04:07.556Z,13.49
2019-05-05T05:06:38.494Z,13.53
2019-05-05T05:09:07.920Z,13.57
2019-05-05T05:11:37.216Z,13.59
2019-05-05T05:14:06.622Z,13.62
2019-05-05T05:16:35.952Z,13.65
2019-05-05T05:19:05.339Z,13.64
2019-05-05T05:21:34.561Z,13.69
2019-05-05T05:24:04.137Z,13.69
2019-05-05T05:26:33.703Z,13.74
2019-05-05T05:29:04.531Z,13.77
2019-05-05T05:31:34.085Z,13.78
2019-05-05T05:34:04.372Z,13.80
2019-05-05T05:36:33.974Z,13.85
2019-05-05T05:39:07.663Z,13.85
2019-05-05T05:41:46.902Z,13.86
2019-05-05T05:44:28.178Z,13.90
2019-05-05T05:47:08.422Z,13.90
2019-05-05T05:49:39.448Z,13.93
2019-05-05T05:52:15.982Z,13.95
2019-05-05T05:54:39.903Z,13.99
2019-05-05T05:57:09.404Z,14.01
2019-05-05T05:59:38.774Z,13.96
2019-05-05T06:02:11.722Z,13.97
2019-05-05T06:04:39.258Z,13.96
2019-05-05T06:07:08.627Z,13.95
2019-05-05T06:09:37.965Z,13.92
2019-05-05T06:12:07.454Z,13.91
2019-05-05T06:14:36.753Z,13.91
2019-05-05T06:17:06.167Z,13.97
2019-05-05T06:19:35.524Z,13.95
2019-05-05T06:22:04.898Z,13.96
2019-05-05T06:24:34.690Z,13.96
2019-05-05T06:27:04.090Z,13.93
2019-05-05T06:29:34.504Z,13.95
2019-05-05T06:32:04.430Z,13.98
2019-05-05T06:34:33.997Z,14.00
2019-05-05T06:37:04.268Z,14.03
2019-05-05T06:39:33.995Z,14.03
2019-05-05T06:42:13.655Z,14.05
2019-05-05T06:45:00.566Z,14.08
2019-05-05T06:47:30.911Z,14.09
2019-05-05T06:50:00.213Z,14.19
2019-05-05T06:52:41.892Z,14.22
2019-05-05T06:55:03.743Z,14.26
2019-05-05T06:57:34.302Z,14.32
2019-05-05T07:00:04.928Z,14.43
2019-05-05T07:02:34.365Z,14.43
2019-05-05T07:05:04.241Z,14.53
2019-05-05T07:07:34.283Z,14.52
2019-05-05T07:10:05.264Z,14.66
2019-05-05T07:12:34.843Z,14.71
2019-05-05T07:15:07.040Z,14.79
2019-05-05T07:17:36.490Z,14.75
2019-05-05T07:20:06.950Z,14.87
2019-05-05T07:22:36.281Z,14.94
2019-05-05T07:25:06.438Z,14.97
2019-05-05T07:27:35.805Z,15.01
2019-05-05T07:30:07.072Z,15.04
2019-05-05T07:32:36.491Z,15.15
2019-05-05T07:35:19.767Z,15.34
2019-05-05T07:37:49.207Z,15.50
2019-05-05T07:40:18.576Z,15.53
2019-05-05T07:42:48.062Z,15.56
2019-05-05T07:45:22.511Z,15.50
2019-05-05T07:47:48.433Z,15.57
2019-05-05T07:50:28.546Z,15.63
2019-05-05T07:52:48.915Z,15.58
2019-05-05T07:55:18.303Z,15.55
2019-05-05T07:57:47.731Z,15.53
2019-05-05T08:00:17.549Z,15.57
2019-05-05T08:02:46.918Z,15.69
2019-05-05T08:05:16.449Z,15.77
2019-05-05T08:07:45.676Z,15.75
2019-05-05T08:10:16.183Z,15.85
2019-05-05T08:12:45.528Z,15.82
2019-05-05T08:15:16.690Z,15.91
2019-05-05T08:18:05.750Z,16.06
2019-05-05T08:20:44.339Z,16.27
2019-05-05T08:23:29.100Z,16.31
2019-05-05T08:25:51.203Z,16.43
2019-05-05T08:28:25.237Z,16.54
2019-05-05T08:30:58.653Z,16.50
2019-05-05T08:33:28.031Z,16.67
2019-05-05T08:35:57.426Z,16.71
2019-05-05T08:38:26.753Z,16.78
2019-05-05T08:40:56.041Z,16.99
2019-05-05T08:43:26.414Z,17.19
2019-05-05T08:45:55.772Z,17.20
2019-05-05T08:48:25.078Z,17.21
2019-05-05T08:50:56.963Z,17.54
2019-05-05T08:53:26.310Z,17.66
2019-05-05T08:55:55.686Z,17.68
2019-05-05T08:58:25.008Z,17.93
2019-05-05T09:00:54.408Z,18.10
2019-05-05T09:03:24.365Z,18.45
2019-05-05T09:05:54.342Z,18.30
2019-05-05T09:08:24.198Z,18.39
2019-05-05T09:10:55.214Z,18.78
2019-05-05T09:13:24.887Z,19.37
2019-05-05T09:15:54.457Z,19.47
2019-05-05T09:18:24.582Z,19.67
2019-05-05T09:20:54.241Z,20.23
2019-05-05T09:23:24.097Z,21.05
2019-05-05T09:26:01.254Z,21.46
2019-05-05T09:28:48.824Z,21.48
2019-05-05T09:31:18.147Z,21.62
2019-05-05T09:33:47.585Z,22.00
2019-05-05T09:36:16.896Z,22.09
2019-05-05T09:38:46.602Z,22.36
2019-05-05T09:41:15.978Z,23.32
2019-05-05T09:43:45.295Z,23.56
2019-05-05T09:46:14.806Z,23.14
2019-05-05T09:48:44.189Z,22.45
2019-05-05T09:51:13.675Z,22.63
2019-05-05T09:53:44.828Z,23.08
2019-05-05T09:56:15.210Z,22.60
2019-05-05T09:58:44.582Z,22.05
2019-05-05T10:01:16.463Z,22.34
2019-05-05T10:03:45.778Z,22.54
2019-05-05T10:06:15.174Z,22.78
2019-05-05T10:08:44.775Z,22.99
2019-05-05T10:11:16.541Z,23.48
2019-05-05T10:13:45.224Z,23.49
2019-05-05T10:16:14.607Z,22.71
2019-05-05T10:18:44.829Z,22.85
2019-05-05T10:21:17.582Z,22.98
2019-05-05T10:23:47.340Z,23.35
2019-05-05T10:26:18.778Z,23.13
2019-05-05T10:28:48.163Z,22.99
2019-05-05T10:31:17.601Z,22.51
2019-05-05T10:33:48.752Z,22.47
2019-05-05T10:36:18.126Z,22.34
2019-05-05T10:38:49.042Z,22.80
2019-05-05T10:41:18.501Z,23.29
2019-05-05T10:43:47.980Z,22.99
2019-05-05T10:46:17.361Z,22.06
2019-05-05T10:48:46.705Z,22.07
2019-05-05T10:51:16.115Z,22.08
2019-05-05T10:53:45.425Z,22.00
2019-05-05T10:56:14.813Z,21.87
2019-05-05T10:58:44.370Z,21.49
2019-05-05T11:01:14.529Z,21.47
2019-05-05T11:03:44.736Z,21.66
2019-05-05T11:06:14.437Z,21.51
2019-05-05T11:08:45.127Z,21.52
2019-05-05T11:11:14.855Z,21.30
2019-05-05T11:13:46.493Z,21.08
2019-05-05T11:16:15.858Z,20.90
2019-05-05T11:18:45.346Z,20.91
2019-05-05T11:21:14.860Z,20.65
2019-05-05T11:23:44.937Z,20.35
2019-05-05T11:26:14.531Z,20.28
2019-05-05T11:28:44.519Z,20.14
2019-05-05T11:31:14.366Z,20.20
2019-05-05T11:33:51.392Z,20.01
2019-05-05T11:36:37.417Z,20.04
2019-05-05T11:39:07.728Z,19.92
2019-05-05T11:41:37.087Z,19.70
2019-05-05T11:44:07.348Z,19.63
2019-05-05T11:46:36.857Z,19.56
2019-05-05T11:49:06.184Z,19.58
2019-05-05T11:51:35.565Z,19.83
2019-05-05T11:54:05.049Z,20.16
2019-05-05T11:56:34.409Z,20.62
2019-05-05T11:59:04.073Z,20.95
2019-05-05T12:01:33.618Z,21.05
2019-05-05T12:04:04.620Z,21.49
2019-05-05T12:06:34.120Z,21.50
2019-05-05T12:09:05.513Z,21.21
2019-05-05T12:11:34.985Z,20.89
2019-05-05T12:14:06.043Z,20.71
2019-05-05T12:16:35.319Z,20.51
2019-05-05T12:19:09.438Z,20.18
2019-05-05T12:21:38.744Z,19.92
2019-05-05T12:24:09.740Z,19.79
2019-05-05T12:26:40.667Z,19.34
2019-05-05T12:29:11.039Z,19.23
2019-05-05T12:31:42.027Z,19.00
2019-05-05T12:34:11.389Z,19.14
2019-05-05T12:36:40.889Z,18.99
2019-05-05T12:39:14.049Z,19.03
2019-05-05T12:41:43.259Z,19.49
2019-05-05T12:44:14.416Z,19.98
2019-05-05T12:46:45.456Z,20.58
2019-05-05T12:49:14.822Z,20.25
2019-05-05T12:51:44.210Z,20.10
2019-05-05T12:54:14.685Z,20.63
2019-05-05T12:56:44.681Z,21.30
2019-05-05T12:59:15.861Z,22.08
2019-05-05T13:01:45.304Z,21.07
2019-05-05T13:04:14.606Z,21.76
2019-05-05T13:06:45.112Z,22.22
2019-05-05T13:09:16.160Z,22.42
2019-05-05T13:11:45.516Z,21.32
2019-05-05T13:14:15.505Z,21.13
2019-05-05T13:16:52.803Z,20.79
2019-05-05T13:19:34.576Z,20.55
2019-05-05T13:22:08.299Z,21.02
2019-05-05T13:24:43.588Z,21.56
2019-05-05T13:27:19.667Z,21.99
2019-05-05T13:29:45.746Z,21.83
2019-05-05T13:32:15.089Z,20.94
2019-05-05T13:34:44.450Z,20.59
2019-05-05T13:37:14.183Z,21.07
2019-05-05T13:39:44.572Z,20.73
2019-05-05T13:42:14.061Z,20.70
2019-05-05T13:44:57.233Z,20.15
2019-05-05T13:47:26.689Z,19.74
2019-05-05T13:49:57.616Z,19.67
2019-05-05T13:52:26.954Z,19.41
2019-05-05T13:54:56.330Z,18.73
2019-05-05T13:57:25.694Z,18.70
2019-05-05T13:59:55.051Z,18.76
2019-05-05T14:02:24.602Z,18.74
2019-05-05T14:04:54.304Z,18.43
2019-05-05T14:07:24.087Z,18.29
2019-05-05T14:09:54.926Z,18.09
2019-05-05T14:12:24.936Z,17.99
2019-05-05T14:14:54.770Z,18.10
2019-05-05T14:17:24.241Z,17.83
2019-05-05T14:20:02.453Z,18.26
2019-05-05T14:22:24.608Z,18.22
2019-05-05T14:24:55.641Z,18.54
2019-05-05T14:27:25.073Z,18.38
2019-05-05T14:29:57.139Z,18.05
2019-05-05T14:32:28.166Z,17.84
2019-05-05T14:34:59.218Z,17.91
2019-05-05T14:37:36.216Z,17.87
2019-05-05T14:40:09.190Z,17.78
2019-05-05T14:42:38.559Z,17.65
2019-05-05T14:45:08.521Z,17.55
2019-05-05T14:47:37.959Z,17.58
2019-05-05T14:50:07.707Z,17.56
2019-05-05T14:52:37.019Z,17.41
2019-05-05T14:55:08.037Z,17.27
2019-05-05T14:57:37.674Z,17.04
2019-05-05T15:00:11.076Z,16.75
2019-05-05T15:02:40.781Z,16.75
2019-05-05T15:05:28.332Z,16.58
2019-05-05T15:08:02.346Z,16.34
2019-05-05T15:10:48.303Z,16.12
2019-05-05T15:13:19.276Z,15.83
2019-05-05T15:15:48.667Z,15.68
2019-05-05T15:18:18.060Z,15.68
2019-05-05T15:20:47.863Z,15.50
2019-05-05T15:23:17.240Z,15.26
2019-05-05T15:25:46.640Z,15.09
2019-05-05T15:28:16.047Z,14.90
2019-05-05T15:30:45.466Z,14.86
2019-05-05T15:33:14.856Z,14.75
2019-05-05T15:35:46.508Z,14.63
2019-05-05T15:38:15.436Z,14.59
2019-05-05T15:40:47.785Z,14.27
2019-05-05T15:43:15.960Z,14.20
2019-05-05T15:45:46.453Z,14.06
2019-05-05T15:48:16.016Z,13.98
2019-05-05T15:50:45.414Z,14.04
2019-05-05T15:53:14.868Z,13.93
2019-05-05T15:55:51.029Z,14.00
2019-05-05T15:58:24.513Z,13.99
2019-05-05T16:00:54.597Z,13.86
2019-05-05T16:03:24.144Z,13.60
2019-05-05T16:05:54.287Z,13.66
2019-05-05T16:08:23.871Z,13.77
2019-05-05T16:10:54.730Z,13.76
2019-05-05T16:13:24.284Z,13.70
2019-05-05T16:15:55.784Z,13.42
2019-05-05T16:18:27.136Z,13.28
2019-05-05T16:21:01.299Z,13.28
2019-05-05T16:23:35.928Z,13.25
2019-05-05T16:26:05.449Z,13.29
2019-05-05T16:28:34.815Z,13.22
2019-05-05T16:31:05.416Z,13.11
2019-05-05T16:33:35.098Z,12.93
2019-05-05T16:36:06.325Z,12.84
2019-05-05T16:38:36.523Z,12.82
2019-05-05T16:41:06.367Z,12.88
2019-05-05T16:43:35.708Z,12.90
2019-05-05T16:46:05.225Z,12.84
2019-05-05T16:48:34.655Z,12.77
2019-05-05T16:51:05.687Z,12.60
2019-05-05T16:53:36.141Z,12.52
2019-05-05T16:56:08.952Z,12.56
2019-05-05T16:58:38.589Z,12.59
2019-05-05T17:01:09.615Z,12.48
2019-05-05T17:03:39.074Z,12.33
2019-05-05T17:06:08.602Z,12.29
2019-05-05T17:08:38.182Z,12.13
2019-05-05T17:11:07.787Z,12.07
2019-05-05T17:13:44.133Z,11.83
2019-05-05T17:16:34.996Z,11.69
2019-05-05T17:19:04.775Z,11.66
2019-05-05T17:21:41.912Z,11.57
2019-05-05T17:24:11.442Z,11.54
2019-05-05T17:26:40.818Z,11.49
2019-05-05T17:29:12.117Z,11.54
2019-05-05T17:31:41.941Z,11.60
2019-05-05T17:34:11.352Z,11.62
2019-05-05T17:36:40.721Z,11.52
2019-05-05T17:39:10.217Z,11.45
2019-05-05T17:41:47.915Z,11.35
2019-05-05T17:44:24.109Z,11.16
2019-05-05T17:46:55.485Z,11.12
2019-05-05T17:49:43.541Z,11.01
2019-05-05T17:52:18.536Z,10.99
2019-05-05T17:54:49.993Z,10.83
2019-05-05T17:57:19.473Z,10.78
2019-05-05T17:59:48.953Z,10.71
2019-05-05T18:02:18.467Z,10.67
2019-05-05T18:04:48.108Z,10.65
2019-05-05T18:07:37.454Z,10.56
2019-05-05T18:10:09.008Z,10.54
2019-05-05T18:12:55.957Z,10.42
2019-05-05T18:15:43.543Z,10.46
2019-05-05T18:18:13.947Z,10.28
2019-05-05T18:20:44.940Z,10.18
2019-05-05T18:23:14.462Z,10.07
2019-05-05T18:25:44.242Z,9.92
2019-05-05T18:28:19.730Z,9.72
2019-05-05T18:30:45.294Z,9.72
2019-05-05T18:33:14.714Z,9.58
2019-05-05T18:35:44.578Z,9.53
2019-05-05T18:38:13.980Z,9.44
2019-05-05T18:40:44.071Z,9.37
2019-05-05T18:43:15.284Z,9.36
2019-05-05T18:45:44.675Z,9.23
2019-05-05T18:48:14.087Z,9.15
2019-05-05T18:50:43.547Z,9.06
2019-05-05T18:53:14.085Z,9.02
2019-05-05T18:55:44.606Z,9.02
2019-05-05T18:58:26.875Z,8.98
2019-05-05T19:00:58.920Z,8.87
2019-05-05T19:03:44.900Z,8.84
2019-05-05T19:06:18.618Z,8.82
2019-05-05T19:08:57.207Z,8.80
2019-05-05T19:11:26.876Z,8.78
2019-05-05T19:13:56.593Z,8.73
2019-05-05T19:16:26.167Z,8.75
2019-05-05T19:18:55.777Z,8.66
2019-05-05T19:21:29.986Z,8.70
2019-05-05T19:23:59.451Z,8.67
2019-05-05T19:26:29.246Z,8.61
2019-05-05T19:28:58.773Z,8.60
2019-05-05T19:31:28.348Z,8.65
2019-05-05T19:33:57.768Z,8.58
2019-05-05T19:36:27.561Z,8.57
2019-05-05T19:38:57.200Z,8.57
2019-05-05T19:41:26.654Z,8.57
2019-05-05T19:43:56.155Z,8.60
2019-05-05T19:46:30.398Z,8.58
2019-05-05T19:49:19.581Z,8.58
2019-05-05T19:51:49.847Z,8.53
2019-05-05T19:54:19.277Z,8.55
2019-05-05T19:56:48.969Z,8.53
2019-05-05T19:59:18.702Z,8.54
2019-05-05T20:01:48.202Z,8.50
2019-05-05T20:04:17.605Z,8.48
2019-05-05T20:06:47.090Z,8.51
2019-05-05T20:09:16.539Z,8.51
2019-05-05T20:11:45.921Z,8.52
2019-05-05T20:14:15.396Z,8.51
2019-05-05T20:17:04.883Z,8.50
2019-05-05T20:19:36.296Z,8.46
2019-05-05T20:22:06.062Z,8.43
2019-05-05T20:24:35.564Z,8.30
2019-05-05T20:27:05.138Z,8.33
2019-05-05T20:29:37.396Z,8.31
2019-05-05T20:32:06.006Z,8.37
2019-05-05T20:34:37.169Z,8.31
2019-05-05T20:37:08.330Z,8.29
2019-05-05T20:39:39.135Z,8.29
2019-05-05T20:42:08.751Z,8.25
2019-05-05T20:44:38.576Z,8.23
2019-05-05T20:47:07.873Z,8.24
2019-05-05T20:49:37.853Z,8.22
2019-05-05T20:52:07.433Z,8.22
2019-05-05T20:54:36.857Z,8.20
2019-05-05T20:57:06.231Z,8.14
2019-05-05T20:59:35.566Z,8.19
2019-05-05T21:02:05.052Z,8.20
2019-05-05T21:04:34.732Z,8.20
2019-05-05T21:07:04.742Z,8.16
2019-05-05T21:09:34.673Z,8.17
2019-05-05T21:12:04.875Z,8.19
2019-05-05T21:14:37.878Z,8.18
2019-05-05T21:17:05.829Z,8.14
2019-05-05T21:19:35.190Z,8.13
2019-05-05T21:22:22.704Z,8.09
2019-05-05T21:24:54.240Z,8.04
2019-05-05T21:27:24.482Z,8.07
2019-05-05T21:29:54.387Z,8.10
2019-05-05T21:32:25.377Z,8.09
2019-05-05T21:34:55.215Z,8.09
2019-05-05T21:37:24.984Z,8.09
2019-05-05T21:39:55.165Z,8.04
2019-05-05T21:42:24.885Z,8.04
2019-05-05T21:44:54.142Z,8.01
2019-05-05T21:47:24.057Z,7.99
2019-05-05T21:49:54.485Z,8.03
2019-05-05T21:52:25.410Z,8.04
2019-05-05T21:54:56.487Z,8.01
2019-05-05T21:57:36.218Z,7.99
2019-05-05T22:00:11.064Z,7.96
2019-05-05T22:02:40.697Z,7.91
2019-05-05T22:05:10.238Z,7.89
2019-05-05T22:07:39.609Z,7.87
2019-05-05T22:10:09.373Z,7.86
2019-05-05T22:12:38.739Z,7.85
2019-05-05T22:15:08.796Z,7.85
2019-05-05T22:17:40.612Z,7.82
2019-05-05T22:20:11.821Z,7.78
2019-05-05T22:22:45.037Z,7.77
2019-05-05T22:25:14.202Z,7.77
2019-05-05T22:27:44.107Z,7.79
2019-05-05T22:30:14.336Z,7.79
2019-05-05T22:32:44.224Z,7.76
2019-05-05T22:35:16.172Z,7.73
2019-05-05T22:37:44.977Z,7.69
2019-05-05T22:40:24.340Z,7.73
2019-05-05T22:42:54.762Z,7.73
2019-05-05T22:45:24.196Z,7.71
2019-05-05T22:47:54.320Z,7.69
2019-05-05T22:50:24.663Z,7.73
2019-05-05T22:52:54.623Z,7.74
2019-05-05T22:55:24.791Z,7.73
2019-05-05T22:57:54.589Z,7.75
2019-05-05T23:00:29.231Z,7.76
2019-05-05T23:02:57.598Z,7.73
2019-05-05T23:05:34.656Z,7.78
2019-05-05T23:08:05.084Z,7.80
2019-05-05T23:10:35.376Z,7.77
2019-05-05T23:13:04.779Z,7.77
2019-05-05T23:15:35.791Z,7.76
2019-05-05T23:18:07.183Z,7.77
2019-05-05T23:21:07.032Z,7.78
2019-05-05T23:23:50.154Z,7.79
2019-05-05T23:26:29.729Z,7.84
2019-05-05T23:28:59.188Z,7.83
2019-05-05T23:31:28.412Z,7.84
2019-05-05T23:33:59.046Z,7.82
2019-05-05T23:36:28.398Z,7.82
2019-05-05T23:38:57.687Z,7.83
2019-05-05T23:41:27.092Z,7.84
2019-05-05T23:43:56.313Z,7.87
2019-05-05T23:46:25.703Z,7.86
2019-05-05T23:48:55.109Z,7.85
2019-05-05T23:51:24.394Z,7.89
2019-05-05T23:53:55.087Z,7.84
2019-05-05T23:56:24.602Z,7.88
2019-05-05T23:58:54.996Z,7.83
